createdAt,value
2019-02-08T00:00:18.527Z,4.10
2019-02-08T00:02:03.967Z,3.10
2019-02-08T00:03:03.827Z,3.70
2019-02-08T00:04:56.541Z,4.70
2019-02-08T00:05:56.398Z,3.70
2019-02-08T00:07:49.043Z,5.20
2019-02-08T00:08:48.903Z,6.10
2019-02-08T00:10:41.544Z,6.40
2019-02-08T00:11:41.405Z,5.10
2019-02-08T00:13:34.049Z,6.40
2019-02-08T00:14:33.911Z,5.30
2019-02-08T00:16:41.718Z,5.60
2019-02-08T00:17:41.581Z,5.40
2019-02-08T00:19:34.234Z,5.70
2019-02-08T00:20:34.176Z,5.80
2019-02-08T00:22:26.767Z,5.00
2019-02-08T00:23:27.537Z,4.40
2019-02-08T00:25:19.264Z,4.40
2019-02-08T00:26:19.132Z,4.30
2019-02-08T00:28:11.805Z,3.60
2019-02-08T00:29:11.663Z,3.90
2019-02-08T00:31:04.314Z,4.60
2019-02-08T00:32:04.201Z,4.50
2019-02-08T00:33:56.990Z,4.80
2019-02-08T00:34:56.676Z,4.70
2019-02-08T00:36:49.322Z,4.20
2019-02-08T00:37:49.185Z,3.50
2019-02-08T00:39:41.827Z,4.10
2019-02-08T00:40:41.685Z,3.70
2019-02-08T00:42:34.333Z,3.40
2019-02-08T00:43:34.192Z,3.90
2019-02-08T00:45:26.833Z,5.30
2019-02-08T00:46:26.698Z,4.90
2019-02-08T00:48:19.373Z,5.30
2019-02-08T00:49:19.234Z,6.30
2019-02-08T00:51:11.912Z,5.30
2019-02-08T00:52:11.739Z,5.40
2019-02-08T00:54:04.378Z,6.20
2019-02-08T00:55:04.239Z,6.70
2019-02-08T00:56:56.882Z,6.40
2019-02-08T00:57:56.740Z,5.40
2019-02-08T00:59:49.382Z,7.10
2019-02-08T01:00:49.244Z,8.30
2019-02-08T01:02:41.922Z,6.00
2019-02-08T01:03:41.749Z,5.30
2019-02-08T01:05:34.389Z,6.50
2019-02-08T01:06:34.251Z,5.60
2019-02-08T01:08:26.892Z,5.40
2019-02-08T01:09:26.752Z,5.70
2019-02-08T01:11:20.248Z,5.20
2019-02-08T01:12:20.111Z,4.50
2019-02-08T01:14:12.747Z,6.00
2019-02-08T01:15:12.609Z,6.10
2019-02-08T01:17:05.255Z,5.80
2019-02-08T01:18:05.112Z,4.30
2019-02-08T01:19:57.760Z,5.20
2019-02-08T01:20:57.616Z,5.20
2019-02-08T01:22:50.261Z,11.10
2019-02-08T01:23:50.127Z,15.20
2019-02-08T01:25:42.763Z,13.50
2019-02-08T01:26:42.624Z,14.30
2019-02-08T01:28:35.267Z,11.30
2019-02-08T01:29:35.127Z,12.40
2019-02-08T01:31:27.765Z,23.60
2019-02-08T01:32:27.624Z,19.30
2019-02-08T01:34:20.263Z,17.20
2019-02-08T01:35:20.124Z,15.30
2019-02-08T01:37:27.838Z,12.50
2019-02-08T01:38:27.697Z,13.40
2019-02-08T01:40:20.355Z,10.50
2019-02-08T01:41:20.216Z,11.40
2019-02-08T01:43:12.855Z,12.40
2019-02-08T01:44:12.713Z,12.40
2019-02-08T01:46:05.355Z,14.70
2019-02-08T01:47:05.219Z,16.20
2019-02-08T01:48:57.857Z,16.50
2019-02-08T01:49:57.716Z,15.70
2019-02-08T01:51:50.358Z,16.10
2019-02-08T01:52:50.218Z,17.00
2019-02-08T01:54:42.859Z,15.10
2019-02-08T01:55:42.718Z,15.10
2019-02-08T01:57:35.365Z,14.80
2019-02-08T01:58:35.226Z,14.40
2019-02-08T02:00:27.871Z,14.60
2019-02-08T02:01:27.727Z,13.70
2019-02-08T02:03:21.212Z,12.20
2019-02-08T02:04:21.070Z,13.30
2019-02-08T02:06:13.713Z,12.30
2019-02-08T02:07:13.573Z,14.30
2019-02-08T02:09:06.214Z,12.10
2019-02-08T02:10:06.073Z,14.00
2019-02-08T02:11:59.561Z,13.40
2019-02-08T02:12:59.420Z,14.20
2019-02-08T02:14:52.063Z,13.60
2019-02-08T02:15:51.922Z,13.70
2019-02-08T02:17:44.563Z,13.00
2019-02-08T02:18:44.422Z,10.80
2019-02-08T02:20:37.968Z,10.40
2019-02-08T02:21:37.827Z,9.60
2019-02-08T02:23:30.467Z,10.90
2019-02-08T02:24:30.326Z,10.20
2019-02-08T02:26:23.013Z,10.90
2019-02-08T02:27:22.874Z,10.10
2019-02-08T02:29:15.520Z,9.30
2019-02-08T02:30:15.375Z,10.20
2019-02-08T02:32:23.090Z,9.50
2019-02-08T02:33:22.956Z,8.70
2019-02-08T02:35:15.593Z,8.90
2019-02-08T02:36:15.447Z,8.30
2019-02-08T02:38:08.122Z,11.20
2019-02-08T02:39:07.950Z,9.40
2019-02-08T02:41:00.596Z,9.70
2019-02-08T02:42:00.453Z,8.00
2019-02-08T02:43:53.980Z,8.70
2019-02-08T02:44:53.841Z,7.70
2019-02-08T02:46:46.481Z,11.60
2019-02-08T02:47:46.342Z,10.80
2019-02-08T02:49:38.983Z,12.30
2019-02-08T02:50:38.843Z,12.80
2019-02-08T02:52:31.485Z,13.90
2019-02-08T02:53:31.344Z,12.70
2019-02-08T02:55:23.984Z,13.60
2019-02-08T02:56:23.844Z,14.20
2019-02-08T02:58:16.489Z,12.90
2019-02-08T02:59:16.354Z,14.30
2019-02-08T03:01:08.993Z,13.20
2019-02-08T03:02:08.856Z,12.70
2019-02-08T03:04:01.536Z,14.60
2019-02-08T03:05:01.357Z,15.20
2019-02-08T03:06:54.001Z,17.10
2019-02-08T03:07:53.861Z,18.20
2019-02-08T03:09:46.537Z,16.50
2019-02-08T03:10:46.363Z,17.10
2019-02-08T03:12:39.002Z,16.80
2019-02-08T03:13:38.867Z,16.50
2019-02-08T03:15:32.397Z,14.70
2019-02-08T03:16:32.213Z,15.50
2019-02-08T03:18:24.853Z,14.70
2019-02-08T03:19:24.714Z,16.50
2019-02-08T03:21:17.360Z,17.60
2019-02-08T03:22:17.218Z,15.40
2019-02-08T03:24:13.037Z,17.40
2019-02-08T03:25:09.720Z,16.70
2019-02-08T03:27:02.367Z,14.50
2019-02-08T03:28:02.227Z,15.20
2019-02-08T03:29:54.867Z,17.10
2019-02-08T03:30:54.729Z,15.10
2019-02-08T03:32:47.370Z,16.00
2019-02-08T03:33:47.230Z,16.20
2019-02-08T03:35:39.876Z,16.00
2019-02-08T03:36:39.738Z,13.80
2019-02-08T03:38:33.221Z,16.00
2019-02-08T03:39:33.081Z,16.00
2019-02-08T03:41:25.723Z,15.40
2019-02-08T03:42:25.581Z,16.10
2019-02-08T03:44:18.227Z,15.40
2019-02-08T03:45:18.084Z,16.10
2019-02-08T03:47:11.579Z,15.80
2019-02-08T03:48:11.435Z,13.30
2019-02-08T03:50:04.078Z,15.00
2019-02-08T03:51:03.937Z,14.70
2019-02-08T03:52:56.586Z,15.70
2019-02-08T03:53:56.443Z,14.90
2019-02-08T03:55:56.649Z,15.10
2019-02-08T03:56:48.944Z,15.30
2019-02-08T03:58:41.589Z,13.70
2019-02-08T03:59:41.450Z,16.00
2019-02-08T04:01:34.116Z,14.00
2019-02-08T04:02:33.949Z,13.20
2019-02-08T04:04:26.592Z,13.90
2019-02-08T04:05:26.460Z,13.20
2019-02-08T04:07:19.091Z,13.60
2019-02-08T04:08:18.952Z,12.50
2019-02-08T04:10:11.592Z,14.30
2019-02-08T04:11:11.452Z,13.10
2019-02-08T04:13:04.096Z,13.50
2019-02-08T04:14:03.955Z,14.40
2019-02-08T04:15:56.592Z,15.50
2019-02-08T04:16:56.454Z,14.90
2019-02-08T04:18:49.098Z,12.70
2019-02-08T04:19:48.972Z,14.20
2019-02-08T04:21:41.604Z,13.70
2019-02-08T04:22:41.462Z,13.00
2019-02-08T04:24:34.148Z,12.80
2019-02-08T04:25:34.006Z,15.60
2019-02-08T04:27:26.664Z,15.10
2019-02-08T04:28:26.519Z,14.80
2019-02-08T04:30:19.152Z,17.80
2019-02-08T04:31:19.012Z,19.00
2019-02-08T04:33:12.504Z,19.50
2019-02-08T04:34:12.373Z,18.80
2019-02-08T04:36:05.010Z,17.90
2019-02-08T04:37:04.866Z,18.50
2019-02-08T04:38:57.516Z,19.90
2019-02-08T04:39:57.371Z,17.90
2019-02-08T04:41:50.019Z,23.30
2019-02-08T04:42:49.872Z,24.40
2019-02-08T04:44:42.516Z,17.00
2019-02-08T04:45:42.379Z,17.60
2019-02-08T04:47:35.022Z,17.30
2019-02-08T04:48:34.881Z,16.10
2019-02-08T04:50:27.526Z,16.60
2019-02-08T04:51:27.385Z,15.30
2019-02-08T04:53:20.240Z,19.20
2019-02-08T04:54:19.891Z,18.20
2019-02-08T04:56:12.530Z,16.90
2019-02-08T04:57:12.407Z,16.90
2019-02-08T04:59:05.036Z,16.40
2019-02-08T05:00:04.907Z,14.30
2019-02-08T05:01:57.539Z,14.80
2019-02-08T05:02:57.397Z,14.60
2019-02-08T05:04:50.117Z,15.00
2019-02-08T05:05:49.933Z,15.40
2019-02-08T05:07:43.590Z,16.00
2019-02-08T05:08:43.424Z,16.00
2019-02-08T05:10:37.009Z,14.90
2019-02-08T05:11:36.890Z,15.30
2019-02-08T05:12:36.702Z,14.10
2019-02-08T05:13:36.688Z,15.20
2019-02-08T05:14:36.422Z,14.90
2019-02-08T05:15:37.370Z,14.10
2019-02-08T05:16:36.148Z,15.90
2019-02-08T05:17:36.334Z,16.50
2019-02-08T05:18:36.249Z,20.00
2019-02-08T05:19:35.742Z,15.80
2019-02-08T05:20:35.626Z,14.50
2019-02-08T05:21:35.558Z,15.30
2019-02-08T05:22:35.346Z,15.60
2019-02-08T05:23:35.244Z,17.50
2019-02-08T05:24:35.159Z,16.50
2019-02-08T05:25:35.013Z,16.70
2019-02-08T05:26:34.797Z,15.80
2019-02-08T05:27:34.665Z,13.80
2019-02-08T05:28:34.524Z,12.50
2019-02-08T05:29:34.391Z,10.10
2019-02-08T05:30:34.270Z,12.00
2019-02-08T05:31:34.128Z,10.40
2019-02-08T05:32:33.986Z,10.10
2019-02-08T05:33:33.856Z,9.30
2019-02-08T05:34:33.729Z,7.90
2019-02-08T05:35:33.738Z,6.40
2019-02-08T05:36:33.448Z,6.70
2019-02-08T05:37:33.315Z,6.40
2019-02-08T05:38:33.183Z,4.90
2019-02-08T05:39:33.046Z,2.90
2019-02-08T05:40:32.911Z,3.80
2019-02-08T05:41:32.778Z,2.80
2019-02-08T05:42:32.652Z,3.20
2019-02-08T05:43:32.506Z,2.20
2019-02-08T05:44:32.397Z,2.40
2019-02-08T05:45:32.237Z,2.50
2019-02-08T05:46:32.144Z,2.00
2019-02-08T05:47:31.965Z,2.10
2019-02-08T05:48:31.830Z,1.90
2019-02-08T05:49:31.698Z,2.50
2019-02-08T05:50:31.558Z,1.90
2019-02-08T05:51:31.423Z,2.90
2019-02-08T05:52:31.286Z,1.60
2019-02-08T05:53:31.152Z,2.10
2019-02-08T05:54:31.014Z,2.50
2019-02-08T05:55:30.894Z,1.80
2019-02-08T05:56:30.744Z,2.00
2019-02-08T05:57:30.610Z,1.70
2019-02-08T05:58:30.473Z,1.80
2019-02-08T05:59:30.338Z,2.60
2019-02-08T06:00:30.202Z,2.20
2019-02-08T06:01:30.065Z,1.50
2019-02-08T06:02:29.943Z,1.90
2019-02-08T06:03:29.794Z,2.50
2019-02-08T06:04:29.658Z,2.20
2019-02-08T06:05:29.521Z,1.70
2019-02-08T06:06:29.393Z,1.80
2019-02-08T06:07:29.248Z,1.70
2019-02-08T06:08:29.112Z,2.00
2019-02-08T06:09:28.976Z,1.80
2019-02-08T06:10:28.840Z,1.50
2019-02-08T06:11:28.706Z,2.70
2019-02-08T06:12:28.569Z,2.20
2019-02-08T06:13:28.433Z,1.80
2019-02-08T06:14:28.296Z,1.80
2019-02-08T06:15:28.163Z,1.60
2019-02-08T06:16:28.025Z,1.40
2019-02-08T06:17:27.890Z,1.90
2019-02-08T06:18:27.752Z,1.90
2019-02-08T06:19:27.615Z,1.50
2019-02-08T06:20:27.481Z,1.60
2019-02-08T06:21:27.345Z,2.20
2019-02-08T06:22:27.209Z,1.70
2019-02-08T06:23:27.101Z,1.50
2019-02-08T06:24:26.937Z,1.00
2019-02-08T06:25:26.798Z,1.40
2019-02-08T06:26:26.660Z,1.00
2019-02-08T06:27:26.524Z,1.40
2019-02-08T06:28:26.390Z,1.30
2019-02-08T06:29:26.255Z,1.40
2019-02-08T06:30:26.115Z,1.00
2019-02-08T06:31:25.979Z,1.20
2019-02-08T06:32:25.844Z,1.20
2019-02-08T06:33:25.707Z,1.10
2019-02-08T06:34:25.569Z,2.20
2019-02-08T06:35:25.438Z,1.40
2019-02-08T06:36:25.299Z,1.20
2019-02-08T06:37:25.161Z,2.10
2019-02-08T06:38:25.025Z,1.30
2019-02-08T06:39:24.910Z,1.40
2019-02-08T06:40:24.751Z,1.50
2019-02-08T06:41:24.618Z,1.70
2019-02-08T06:42:24.480Z,1.50
2019-02-08T06:43:24.344Z,1.20
2019-02-08T06:44:24.232Z,1.50
2019-02-08T06:45:24.083Z,1.30
2019-02-08T06:46:23.935Z,1.50
2019-02-08T06:47:23.800Z,1.20
2019-02-08T06:48:23.662Z,1.10
2019-02-08T06:49:23.525Z,1.60
2019-02-08T06:50:23.390Z,1.50
2019-02-08T06:51:23.252Z,2.00
2019-02-08T06:52:23.116Z,1.50
2019-02-08T06:53:22.982Z,1.60
2019-02-08T06:54:22.843Z,1.60
2019-02-08T06:55:22.717Z,1.90
2019-02-08T06:56:22.571Z,1.40
2019-02-08T06:57:22.435Z,1.40
2019-02-08T06:58:22.299Z,1.40
2019-02-08T06:59:22.166Z,1.40
2019-02-08T07:00:22.027Z,1.30
2019-02-08T07:01:21.890Z,1.10
2019-02-08T07:02:21.753Z,1.70
2019-02-08T07:03:21.619Z,1.40
2019-02-08T07:04:21.597Z,1.20
2019-02-08T07:05:21.344Z,1.80
2019-02-08T07:06:21.211Z,1.10
2019-02-08T07:07:21.072Z,2.80
2019-02-08T07:08:20.936Z,1.00
2019-02-08T07:09:20.799Z,1.70
2019-02-08T07:10:20.666Z,1.70
2019-02-08T07:11:20.527Z,1.60
2019-02-08T07:12:20.392Z,1.40
2019-02-08T07:13:20.255Z,1.30
2019-02-08T07:14:20.121Z,1.20
2019-02-08T07:15:19.983Z,1.50
2019-02-08T07:16:19.846Z,1.40
2019-02-08T07:17:19.708Z,1.10
2019-02-08T07:18:19.573Z,1.80
2019-02-08T07:19:19.438Z,1.40
2019-02-08T07:20:19.304Z,1.70
2019-02-08T07:21:19.172Z,1.10
2019-02-08T07:22:19.027Z,1.60
2019-02-08T07:23:18.891Z,1.10
2019-02-08T07:24:18.755Z,1.20
2019-02-08T07:25:18.981Z,1.10
2019-02-08T07:26:18.481Z,1.20
2019-02-08T07:27:18.346Z,1.20
2019-02-08T07:28:18.209Z,1.50
2019-02-08T07:29:18.072Z,1.10
2019-02-08T07:30:17.939Z,1.30
2019-02-08T07:31:17.798Z,1.70
2019-02-08T07:32:17.663Z,1.70
2019-02-08T07:33:17.527Z,1.40
2019-02-08T07:34:17.389Z,1.50
2019-02-08T07:35:17.253Z,1.10
2019-02-08T07:36:17.174Z,1.50
2019-02-08T07:37:16.996Z,1.10
2019-02-08T07:38:16.844Z,1.30
2019-02-08T07:39:16.712Z,1.00
2019-02-08T07:40:16.572Z,2.40
2019-02-08T07:41:16.434Z,1.30
2019-02-08T07:42:16.299Z,1.30
2019-02-08T07:43:16.169Z,1.30
2019-02-08T07:44:16.030Z,1.40
2019-02-08T07:45:15.890Z,1.30
2019-02-08T07:46:15.759Z,1.10
2019-02-08T07:47:15.620Z,1.20
2019-02-08T07:48:15.482Z,1.20
2019-02-08T07:49:15.343Z,2.00
2019-02-08T07:50:15.208Z,1.40
2019-02-08T07:51:15.071Z,1.20
2019-02-08T07:52:14.936Z,1.80
2019-02-08T07:53:14.798Z,1.00
2019-02-08T07:54:14.668Z,1.40
2019-02-08T07:55:14.527Z,1.80
2019-02-08T07:56:14.390Z,1.00
2019-02-08T07:57:14.256Z,1.10
2019-02-08T07:58:14.118Z,1.50
2019-02-08T07:59:13.981Z,1.50
2019-02-08T08:00:13.843Z,1.20
2019-02-08T08:01:13.708Z,2.10
2019-02-08T08:02:14.427Z,1.40
2019-02-08T08:03:13.434Z,1.30
2019-02-08T08:04:13.300Z,1.10
2019-02-08T08:05:13.160Z,1.20
2019-02-08T08:06:13.024Z,2.40
2019-02-08T08:07:12.889Z,1.40
2019-02-08T08:08:12.757Z,1.50
2019-02-08T08:09:12.619Z,1.30
2019-02-08T08:10:12.481Z,2.10
2019-02-08T08:11:12.348Z,1.40
2019-02-08T08:12:12.210Z,1.20
2019-02-08T08:13:12.075Z,1.40
2019-02-08T08:14:11.937Z,1.60
2019-02-08T08:15:11.800Z,1.70
2019-02-08T08:16:11.664Z,1.70
2019-02-08T08:17:11.526Z,1.70
2019-02-08T08:18:11.391Z,1.60
2019-02-08T08:19:11.255Z,1.50
2019-02-08T08:20:11.119Z,1.30
2019-02-08T08:21:10.983Z,1.40
2019-02-08T08:22:10.848Z,1.70
2019-02-08T08:23:10.714Z,1.00
2019-02-08T08:24:10.577Z,1.60
2019-02-08T08:25:10.439Z,0.90
2019-02-08T08:26:10.303Z,1.50
2019-02-08T08:27:10.168Z,1.20
2019-02-08T08:28:10.032Z,1.20
2019-02-08T08:29:09.896Z,1.10
2019-02-08T08:30:09.761Z,1.50
2019-02-08T08:31:09.628Z,0.90
2019-02-08T08:32:09.491Z,1.20
2019-02-08T08:33:09.358Z,1.00
2019-02-08T08:34:09.219Z,1.00
2019-02-08T08:35:09.086Z,1.00
2019-02-08T08:36:08.953Z,1.00
2019-02-08T08:37:08.816Z,1.00
2019-02-08T08:38:08.680Z,1.00
2019-02-08T08:39:08.548Z,1.30
2019-02-08T08:40:08.414Z,0.90
2019-02-08T08:41:08.283Z,0.80
2019-02-08T08:42:08.143Z,2.20
2019-02-08T08:43:08.011Z,0.90
2019-02-08T08:44:07.879Z,1.00
2019-02-08T08:45:07.744Z,1.70
2019-02-08T08:46:07.610Z,1.00
2019-02-08T08:47:07.477Z,0.90
2019-02-08T08:48:07.345Z,1.90
2019-02-08T08:49:07.211Z,1.50
2019-02-08T08:50:07.077Z,1.10
2019-02-08T08:51:06.947Z,1.00
2019-02-08T08:52:06.815Z,1.10
2019-02-08T08:53:06.698Z,1.10
2019-02-08T08:54:06.548Z,1.20
2019-02-08T08:55:06.418Z,1.20
2019-02-08T08:56:06.284Z,1.30
2019-02-08T08:57:06.154Z,1.40
2019-02-08T08:58:06.021Z,1.20
2019-02-08T08:59:05.891Z,1.10
2019-02-08T09:00:05.757Z,1.20
2019-02-08T09:01:05.643Z,1.20
2019-02-08T09:02:05.493Z,1.20
2019-02-08T09:03:05.367Z,1.20
2019-02-08T09:04:05.232Z,1.40
2019-02-08T09:05:05.101Z,1.20
2019-02-08T09:06:08.582Z,1.10
2019-02-08T09:07:04.842Z,1.40
2019-02-08T09:08:04.707Z,1.20
2019-02-08T09:09:04.576Z,1.20
2019-02-08T09:10:04.446Z,1.40
2019-02-08T09:11:04.313Z,1.10
2019-02-08T09:12:04.181Z,1.10
2019-02-08T09:13:04.050Z,1.30
2019-02-08T09:14:03.920Z,1.20
2019-02-08T09:15:03.790Z,1.40
2019-02-08T09:16:03.662Z,1.20
2019-02-08T09:17:03.525Z,1.90
2019-02-08T09:18:03.395Z,1.80
2019-02-08T09:19:03.278Z,1.40
2019-02-08T09:20:03.137Z,1.80
2019-02-08T09:21:03.005Z,2.30
2019-02-08T09:22:02.873Z,3.00
2019-02-08T09:23:02.745Z,1.70
2019-02-08T09:24:02.619Z,2.10
2019-02-08T09:25:02.483Z,2.40
2019-02-08T09:26:02.356Z,2.50
2019-02-08T09:27:02.224Z,2.20
2019-02-08T09:28:02.104Z,2.30
2019-02-08T09:29:01.964Z,1.90
2019-02-08T09:30:01.833Z,2.00
2019-02-08T09:31:01.701Z,1.50
2019-02-08T09:32:03.140Z,1.40
2019-02-08T09:33:01.444Z,2.00
2019-02-08T09:34:01.346Z,2.40
2019-02-08T09:35:01.181Z,1.70
2019-02-08T09:36:01.074Z,1.70
2019-02-08T09:37:00.918Z,1.50
2019-02-08T09:38:00.790Z,1.70
2019-02-08T09:39:00.662Z,1.40
2019-02-08T09:40:00.528Z,1.80
2019-02-08T09:41:00.397Z,1.90
2019-02-08T09:42:00.267Z,1.90
2019-02-08T09:43:00.140Z,1.40
2019-02-08T09:44:00.006Z,1.60
2019-02-08T09:44:59.875Z,1.70
2019-02-08T09:45:59.744Z,1.30
2019-02-08T09:46:59.615Z,2.00
2019-02-08T09:47:59.483Z,2.10
2019-02-08T09:48:59.353Z,1.50
2019-02-08T09:49:59.222Z,1.80
2019-02-08T09:50:59.091Z,2.50
2019-02-08T09:51:58.962Z,1.90
2019-02-08T09:52:58.833Z,1.70
2019-02-08T09:53:58.701Z,2.20
2019-02-08T09:54:58.572Z,1.80
2019-02-08T09:55:59.945Z,1.60
2019-02-08T09:56:58.306Z,2.10
2019-02-08T09:57:58.177Z,1.70
2019-02-08T09:58:58.048Z,1.80
2019-02-08T09:59:57.952Z,2.20
2019-02-08T10:00:57.787Z,1.80
2019-02-08T10:01:57.672Z,2.20
2019-02-08T10:02:57.552Z,2.10
2019-02-08T10:03:57.391Z,1.70
2019-02-08T10:04:57.260Z,1.90
2019-02-08T10:05:57.130Z,2.00
2019-02-08T10:06:56.999Z,2.00
2019-02-08T10:07:56.870Z,1.90
2019-02-08T10:08:56.740Z,2.10
2019-02-08T10:09:56.605Z,2.10
2019-02-08T10:10:56.477Z,2.40
2019-02-08T10:11:56.345Z,1.70
2019-02-08T10:12:56.212Z,1.70
2019-02-08T10:13:56.083Z,2.70
2019-02-08T10:14:55.952Z,2.30
2019-02-08T10:15:55.821Z,1.70
2019-02-08T10:16:55.689Z,1.90
2019-02-08T10:17:55.557Z,2.60
2019-02-08T10:18:55.431Z,1.90
2019-02-08T10:19:55.297Z,2.00
2019-02-08T10:20:55.167Z,2.00
2019-02-08T10:21:55.035Z,2.10
2019-02-08T10:22:54.908Z,2.20
2019-02-08T10:23:54.776Z,2.20
2019-02-08T10:24:54.645Z,1.80
2019-02-08T10:25:54.515Z,2.00
2019-02-08T10:26:54.388Z,2.20
2019-02-08T10:27:54.257Z,2.10
2019-02-08T10:28:54.127Z,2.60
2019-02-08T10:29:53.994Z,2.80
2019-02-08T10:30:53.870Z,2.30
2019-02-08T10:31:53.741Z,1.90
2019-02-08T10:32:53.607Z,2.40
2019-02-08T10:33:53.476Z,2.40
2019-02-08T10:34:53.347Z,2.10
2019-02-08T10:35:53.219Z,2.00
2019-02-08T10:36:53.092Z,2.50
2019-02-08T10:37:52.959Z,2.00
2019-02-08T10:38:52.829Z,1.90
2019-02-08T10:39:52.702Z,2.30
2019-02-08T10:40:52.570Z,2.10
2019-02-08T10:41:52.441Z,3.00
2019-02-08T10:42:52.314Z,1.90
2019-02-08T10:43:52.183Z,1.50
2019-02-08T10:44:52.054Z,1.80
2019-02-08T10:45:51.925Z,2.60
2019-02-08T10:46:51.796Z,1.90
2019-02-08T10:47:51.670Z,2.10
2019-02-08T10:48:51.543Z,1.90
2019-02-08T10:49:51.414Z,2.40
2019-02-08T10:50:51.283Z,1.80
2019-02-08T10:51:51.154Z,2.00
2019-02-08T10:52:51.026Z,2.70
2019-02-08T10:53:53.284Z,1.80
2019-02-08T10:54:50.769Z,2.00
2019-02-08T10:55:50.642Z,1.80
2019-02-08T10:56:50.511Z,2.60
2019-02-08T10:57:50.384Z,1.90
2019-02-08T10:58:50.255Z,2.00
2019-02-08T10:59:50.132Z,1.90
2019-02-08T11:00:50.000Z,2.90
2019-02-08T11:01:49.871Z,2.00
2019-02-08T11:02:49.745Z,2.20
2019-02-08T11:03:49.615Z,2.30
2019-02-08T11:04:49.488Z,1.40
2019-02-08T11:05:49.361Z,1.90
2019-02-08T11:06:49.234Z,1.70
2019-02-08T11:07:49.104Z,2.10
2019-02-08T11:08:48.976Z,2.50
2019-02-08T11:09:48.850Z,1.70
2019-02-08T11:10:48.720Z,1.90
2019-02-08T11:11:48.594Z,1.70
2019-02-08T11:12:48.465Z,1.60
2019-02-08T11:13:48.338Z,1.60
2019-02-08T11:14:48.211Z,1.80
2019-02-08T11:15:48.082Z,1.90
2019-02-08T11:16:47.993Z,2.90
2019-02-08T11:17:47.827Z,2.20
2019-02-08T11:18:47.702Z,1.90
2019-02-08T11:19:47.572Z,2.30
2019-02-08T11:20:47.442Z,2.00
2019-02-08T11:21:47.315Z,1.60
2019-02-08T11:22:47.190Z,2.50
2019-02-08T11:23:47.061Z,3.60
2019-02-08T11:24:46.934Z,1.60
2019-02-08T11:25:46.805Z,2.90
2019-02-08T11:26:46.678Z,2.00
2019-02-08T11:27:46.552Z,1.40
2019-02-08T11:28:46.422Z,1.60
2019-02-08T11:29:46.295Z,1.50
2019-02-08T11:30:46.165Z,1.60
2019-02-08T11:31:46.038Z,1.80
2019-02-08T11:32:45.910Z,1.20
2019-02-08T11:33:45.785Z,1.50
2019-02-08T11:34:45.653Z,1.30
2019-02-08T11:35:45.526Z,1.50
2019-02-08T11:36:45.401Z,1.60
2019-02-08T11:37:45.269Z,1.50
2019-02-08T11:38:45.151Z,1.50
2019-02-08T11:39:45.018Z,2.70
2019-02-08T11:40:44.885Z,1.50
2019-02-08T11:41:44.758Z,2.30
2019-02-08T11:42:44.629Z,1.30
2019-02-08T11:43:44.502Z,1.50
2019-02-08T11:44:44.374Z,1.80
2019-02-08T11:45:44.246Z,1.40
2019-02-08T11:46:44.122Z,1.80
2019-02-08T11:47:43.998Z,1.50
2019-02-08T11:48:43.864Z,1.60
2019-02-08T11:49:43.735Z,1.40
2019-02-08T11:50:43.609Z,2.20
2019-02-08T11:51:43.478Z,1.40
2019-02-08T11:52:43.352Z,1.60
2019-02-08T11:53:43.222Z,1.50
2019-02-08T11:54:43.111Z,1.60
2019-02-08T11:55:42.970Z,1.80
2019-02-08T11:56:42.840Z,1.60
2019-02-08T11:57:42.712Z,1.60
2019-02-08T11:58:42.581Z,1.80
2019-02-08T11:59:42.459Z,1.40
2019-02-08T12:00:42.332Z,1.50
2019-02-08T12:01:42.196Z,1.20
2019-02-08T12:02:42.073Z,1.20
2019-02-08T12:03:41.948Z,2.30
2019-02-08T12:04:41.822Z,1.50
2019-02-08T12:05:41.686Z,2.00
2019-02-08T12:06:41.559Z,1.90
2019-02-08T12:07:41.432Z,2.00
2019-02-08T12:08:41.301Z,1.30
2019-02-08T12:09:41.175Z,1.90
2019-02-08T12:10:41.050Z,2.10
2019-02-08T12:11:40.919Z,1.60
2019-02-08T12:12:40.795Z,1.80
2019-02-08T12:13:40.660Z,1.30
2019-02-08T12:14:40.534Z,1.30
2019-02-08T12:15:40.406Z,1.40
2019-02-08T12:16:40.276Z,1.30
2019-02-08T12:17:40.152Z,1.40
2019-02-08T12:18:40.024Z,1.40
2019-02-08T12:19:39.893Z,1.50
2019-02-08T12:20:39.764Z,1.40
2019-02-08T12:21:39.638Z,2.40
2019-02-08T12:22:39.511Z,1.30
2019-02-08T12:23:39.385Z,1.40
2019-02-08T12:24:39.256Z,1.50
2019-02-08T12:25:39.126Z,1.50
2019-02-08T12:26:38.999Z,1.80
2019-02-08T12:27:38.875Z,1.60
2019-02-08T12:28:38.743Z,2.60
2019-02-08T12:29:38.614Z,1.40
2019-02-08T12:30:38.488Z,1.50
2019-02-08T12:31:38.361Z,1.40
2019-02-08T12:32:38.237Z,1.40
2019-02-08T12:33:38.105Z,2.30
2019-02-08T12:34:37.977Z,1.40
2019-02-08T12:35:37.849Z,1.40
2019-02-08T12:36:37.719Z,1.50
2019-02-08T12:37:37.594Z,1.80
2019-02-08T12:38:37.468Z,1.40
2019-02-08T12:39:37.339Z,1.40
2019-02-08T12:40:37.211Z,3.00
2019-02-08T12:41:37.083Z,1.20
2019-02-08T12:42:36.955Z,1.50
2019-02-08T12:43:36.828Z,6.20
2019-02-08T12:44:36.701Z,3.10
2019-02-08T12:45:36.575Z,3.70
2019-02-08T12:46:36.447Z,1.80
2019-02-08T12:47:36.321Z,1.80
2019-02-08T12:48:36.542Z,1.50
2019-02-08T12:49:36.065Z,1.30
2019-02-08T12:50:35.941Z,1.60
2019-02-08T12:51:35.810Z,1.50
2019-02-08T12:52:35.683Z,1.80
2019-02-08T12:53:35.554Z,1.20
2019-02-08T12:54:35.429Z,1.60
2019-02-08T12:55:35.302Z,1.40
2019-02-08T12:56:35.174Z,1.50
2019-02-08T12:57:35.045Z,1.20
2019-02-08T12:58:34.922Z,1.20
2019-02-08T12:59:34.792Z,1.20
2019-02-08T13:00:34.663Z,1.20
2019-02-08T13:01:37.861Z,1.60
2019-02-08T13:02:34.410Z,1.60
2019-02-08T13:03:34.284Z,1.70
2019-02-08T13:04:34.156Z,1.50
2019-02-08T13:05:34.028Z,1.70
2019-02-08T13:06:33.901Z,1.50
2019-02-08T13:07:33.776Z,1.30
2019-02-08T13:08:33.650Z,1.40
2019-02-08T13:09:33.522Z,1.30
2019-02-08T13:10:33.393Z,1.50
2019-02-08T13:11:33.269Z,1.40
2019-02-08T13:12:33.137Z,1.50
2019-02-08T13:13:33.042Z,1.30
2019-02-08T13:14:32.886Z,1.30
2019-02-08T13:15:32.759Z,1.20
2019-02-08T13:16:32.631Z,1.10
2019-02-08T13:17:32.504Z,1.30
2019-02-08T13:18:32.385Z,1.60
2019-02-08T13:19:32.252Z,1.30
2019-02-08T13:20:32.125Z,1.30
2019-02-08T13:21:32.001Z,1.90
2019-02-08T13:22:31.874Z,1.20
2019-02-08T13:23:31.747Z,1.10
2019-02-08T13:24:31.619Z,1.40
2019-02-08T13:25:31.494Z,1.20
2019-02-08T13:26:31.372Z,1.10
2019-02-08T13:27:31.242Z,1.30
2019-02-08T13:28:31.114Z,1.20
2019-02-08T13:29:30.988Z,1.30
2019-02-08T13:30:30.865Z,1.50
2019-02-08T13:31:30.737Z,1.90
2019-02-08T13:32:30.609Z,1.90
2019-02-08T13:33:30.482Z,1.20
2019-02-08T13:34:30.356Z,1.20
2019-02-08T13:35:30.233Z,2.00
2019-02-08T13:36:30.106Z,2.10
2019-02-08T13:37:29.978Z,1.90
2019-02-08T13:38:29.853Z,1.10
2019-02-08T13:39:29.726Z,1.20
2019-02-08T13:40:29.602Z,1.50
2019-02-08T13:41:29.474Z,1.40
2019-02-08T13:42:29.348Z,1.50
2019-02-08T13:43:29.224Z,1.00
2019-02-08T13:44:29.092Z,1.90
2019-02-08T13:45:28.969Z,1.40
2019-02-08T13:46:28.846Z,1.60
2019-02-08T13:47:28.718Z,1.30
2019-02-08T13:48:28.589Z,1.30
2019-02-08T13:49:28.464Z,1.40
2019-02-08T13:50:28.339Z,1.50
2019-02-08T13:51:28.212Z,1.20
2019-02-08T13:52:28.081Z,1.00
2019-02-08T13:53:27.956Z,1.40
2019-02-08T13:54:27.831Z,1.10
2019-02-08T13:55:27.704Z,1.20
2019-02-08T13:56:27.578Z,1.10
2019-02-08T13:57:27.450Z,1.00
2019-02-08T13:58:27.327Z,1.30
2019-02-08T13:59:27.199Z,1.60
2019-02-08T14:00:27.072Z,1.20
2019-02-08T14:01:26.948Z,1.20
2019-02-08T14:02:26.819Z,1.10
2019-02-08T14:03:26.694Z,1.50
2019-02-08T14:04:26.565Z,1.20
2019-02-08T14:05:26.438Z,9.90
2019-02-08T14:06:26.317Z,2.70
2019-02-08T14:07:26.187Z,1.50
2019-02-08T14:08:26.061Z,1.10
2019-02-08T14:09:25.933Z,1.30
2019-02-08T14:10:25.810Z,1.80
2019-02-08T14:11:25.683Z,1.20
2019-02-08T14:12:25.554Z,1.10
2019-02-08T14:13:25.431Z,1.20
2019-02-08T14:14:25.303Z,1.20
2019-02-08T14:15:25.176Z,1.30
2019-02-08T14:16:25.051Z,1.20
2019-02-08T14:17:24.925Z,1.10
2019-02-08T14:18:24.799Z,1.20
2019-02-08T14:19:24.671Z,1.50
2019-02-08T14:20:24.546Z,1.50
2019-02-08T14:21:24.421Z,1.00
2019-02-08T14:22:24.849Z,1.20
2019-02-08T14:23:24.165Z,1.20
2019-02-08T14:24:24.041Z,1.00
2019-02-08T14:25:23.912Z,1.30
2019-02-08T14:26:23.785Z,1.30
2019-02-08T14:27:23.661Z,1.10
2019-02-08T14:28:23.534Z,1.30
2019-02-08T14:29:23.407Z,1.10
2019-02-08T14:30:23.283Z,1.00
2019-02-08T14:31:23.155Z,1.10
2019-02-08T14:32:23.029Z,1.30
2019-02-08T14:33:22.904Z,1.10
2019-02-08T14:34:22.775Z,1.10
2019-02-08T14:35:22.730Z,1.30
2019-02-08T14:36:22.528Z,1.20
2019-02-08T14:37:22.394Z,1.10
2019-02-08T14:38:22.275Z,1.20
2019-02-08T14:39:22.142Z,1.10
2019-02-08T14:40:22.014Z,1.40
2019-02-08T14:41:21.891Z,1.10
2019-02-08T14:42:21.763Z,1.30
2019-02-08T14:43:21.634Z,1.10
2019-02-08T14:44:21.504Z,1.00
2019-02-08T14:45:21.376Z,1.00
2019-02-08T14:46:21.249Z,1.10